Terminal Aerodrome Forecast
Issued by NWS Goodland, KS

Home | Current Version | Previous Version | Text Only | Print | Product List | Glossary On
Versions: 1 2 3 4 5 6 7 8 9 10 11 12 13 14 15 16 17 18
000
FTUS43 KGLD 102300
TAFGLD
TAF
KGLD 102333Z 1100/1124 14013G20KT P6SM FEW250
     FM110400 17012KT P6SM SCT250
     FM110900 20011KT P6SM SCT120 SCT200
     FM111800 VRB06KT P6SM SCT250=

USA.gov is the U.S. government's official web portal to all federal, state and local government web resources and services.